Time;durP1;ratioP1;P1;durP2;ratioP2;P2;SDS_P1;SDS_P2;PMS_P1;PMS_P2;Temp;Humidity;BMP_temperature;BMP_pressure;BME280_temperature;BME280_humidity;BME280_pressure;Samples;Min_cycle;Max_cycle;Signal;HPM_P1;HPM_P2
2023/10/08 00:02:14;;;;;;;45.35;33.63;;;;;;;26.02;nan;98152.41;4852919;29;20140;-70
2023/10/08 00:04:44;;;;;;;50.63;33.70;;;;;;;25.97;nan;98151.69;4853067;29;20057;-70
2023/10/08 00:07:13;;;;;;;49.40;35.03;;;;;;;25.59;nan;98153.88;4864629;29;20046;-70
2023/10/08 00:09:42;;;;;;;50.50;36.42;;;;;;;25.63;nan;98157.56;4852994;29;20059;-70
2023/10/08 00:12:13;;;;;;;55.38;38.28;;;;;;;25.82;nan;98156.34;4852237;29;20057;-70
2023/10/08 00:14:48;;;;;;;56.95;37.22;;;;;;;25.80;nan;98165.91;4853123;29;20144;-70
2023/10/08 00:17:18;;;;;;;56.30;40.90;;;;;;;25.81;nan;98165.59;4852788;29;20505;-70
2023/10/08 00:19:52;;;;;;;51.03;38.03;;;;;;;25.99;nan;98177.41;4853340;29;20058;-70
2023/10/08 00:22:22;;;;;;;51.30;39.00;;;;;;;25.75;nan;98166.81;4852784;29;20053;-71
2023/10/08 00:24:57;;;;;;;58.65;41.05;;;;;;;25.80;nan;98166.69;4853017;29;20063;-70
2023/10/08 00:27:27;;;;;;;54.65;39.75;;;;;;;25.97;nan;98173.41;4852662;29;20069;-70
2023/10/08 00:29:56;;;;;;;59.15;40.13;;;;;;;26.05;nan;98176.19;4850140;29;20053;-70
2023/10/08 00:32:26;;;;;;;56.03;40.25;;;;;;;26.05;nan;98175.41;4840235;29;20057;-70
2023/10/08 00:34:56;;;;;;;57.88;40.92;;;;;;;26.00;nan;98180.94;4848699;29;20538;-70
2023/10/08 00:37:26;;;;;;;59.28;41.15;;;;;;;25.84;nan;98186.72;4839256;29;20049;-70
2023/10/08 00:39:57;;;;;;;56.53;38.33;;;;;;;25.72;nan;98177.47;4851641;29;20440;-70
2023/10/08 00:42:28;;;;;;;60.22;39.33;;;;;;;25.67;nan;98180.31;4849056;29;20664;-70
2023/10/08 00:45:00;;;;;;;61.65;38.80;;;;;;;25.80;nan;98184.91;4851964;29;20064;-69
2023/10/08 00:47:34;;;;;;;54.05;40.53;;;;;;;25.83;nan;98193.25;4850984;29;20636;-70
2023/10/08 00:50:06;;;;;;;56.30;38.47;;;;;;;25.71;nan;98192.94;4848766;29;20766;-69
2023/10/08 00:52:45;;;;;;;57.00;39.83;;;;;;;25.50;nan;98189.00;4855703;29;20053;-70
2023/10/08 00:55:21;;;;;;;59.83;41.85;;;;;;;25.55;nan;98194.34;4855402;29;20064;-70
2023/10/08 00:57:57;;;;;;;65.50;42.40;;;;;;;25.68;nan;98198.97;4854787;29;20057;-70
2023/10/08 01:00:33;;;;;;;55.50;39.17;;;;;;;25.77;nan;98207.19;4855267;29;20054;-70
2023/10/08 01:03:10;;;;;;;54.80;39.55;;;;;;;25.78;nan;98211.53;4838542;29;20058;-70
2023/10/08 01:05:46;;;;;;;56.10;40.58;;;;;;;25.87;nan;98213.22;4845666;29;20065;-70
2023/10/08 01:08:34;;;;;;;57.60;40.53;;;;;;;26.01;nan;98218.63;4852751;29;20065;-70
2023/10/08 01:12:06;;;;;;;61.72;39.70;;;;;;;25.99;nan;98228.16;4854467;29;20053;-69
2023/10/08 01:14:21;;;;;;;58.03;41.38;;;;;;;26.15;nan;98235.69;4850688;29;20064;-70
2023/10/08 01:16:50;;;;;;;57.13;39.70;;;;;;;25.99;nan;98236.31;4854359;29;20068;-70
2023/10/08 01:19:20;;;;;;;53.45;40.25;;;;;;;25.99;nan;98244.47;4854326;29;20053;-70
2023/10/08 01:21:50;;;;;;;60.40;40.38;;;;;;;25.82;nan;98236.94;4854445;29;20053;-69
2023/10/08 01:24:24;;;;;;;53.67;40.67;;;;;;;25.60;nan;98236.84;4854976;29;20057;-69
2023/10/08 01:26:53;;;;;;;57.38;39.70;;;;;;;25.82;nan;98243.19;4854349;29;20057;-70
2023/10/08 01:29:24;;;;;;;61.58;40.60;;;;;;;26.08;nan;98251.59;4862338;29;20109;-70
2023/10/08 01:31:55;;;;;;;54.70;39.45;;;;;;;26.19;nan;98249.47;4869391;29;20060;-69
2023/10/08 01:34:30;;;;;;;53.38;38.60;;;;;;;26.29;nan;98251.97;4855117;29;20057;-69
2023/10/08 01:37:03;;;;;;;58.33;39.20;;;;;;;26.06;nan;98247.59;4855631;29;20485;-70
2023/10/08 01:39:32;;;;;;;55.08;40.17;;;;;;;26.22;nan;98254.31;4854103;29;20065;-70
2023/10/08 01:42:02;;;;;;;60.17;40.17;;;;;;;26.36;nan;98263.22;4855410;29;20132;-69
2023/10/08 01:44:33;;;;;;;59.65;41.58;;;;;;;26.46;nan;98267.63;4855430;29;20053;-69
2023/10/08 01:47:05;;;;;;;59.47;41.30;;;;;;;26.28;nan;98272.09;4854901;29;20073;-70
2023/10/08 01:49:37;;;;;;;61.58;43.10;;;;;;;26.12;nan;98270.78;4854780;29;20061;-70
2023/10/08 01:52:17;;;;;;;53.35;42.63;;;;;;;26.17;nan;98267.97;4855186;29;20161;-69
2023/10/08 01:54:48;;;;;;;57.13;40.50;;;;;;;26.03;nan;98272.59;4853842;29;20056;-69
2023/10/08 01:57:17;;;;;;;61.75;41.10;;;;;;;26.20;nan;98280.94;4869140;29;20482;-69
2023/10/08 01:59:46;;;;;;;53.03;41.50;;;;;;;26.30;nan;98280.72;4844043;29;20118;-70
2023/10/08 02:02:16;;;;;;;60.33;45.88;;;;;;;26.60;nan;98290.91;4868555;29;20439;-70
2023/10/08 02:04:45;;;;;;;65.75;44.72;;;;;;;26.44;nan;98289.66;4855705;29;20168;-69
2023/10/08 02:07:14;;;;;;;65.18;51.05;;;;;;;26.43;nan;98295.38;4855050;29;20046;-70
2023/10/08 02:09:44;;;;;;;64.70;47.47;;;;;;;26.40;nan;98293.28;4855523;29;20057;-69
2023/10/08 02:12:14;;;;;;;65.72;48.60;;;;;;;26.44;nan;98294.28;4854651;29;20057;-69
2023/10/08 02:14:44;;;;;;;77.85;54.40;;;;;;;26.53;nan;98295.16;4853715;29;20841;-70
2023/10/08 02:17:13;;;;;;;78.80;54.53;;;;;;;26.65;nan;98293.50;4865808;29;20056;-70
2023/10/08 02:19:43;;;;;;;77.13;54.17;;;;;;;26.76;nan;98297.63;4853471;29;20062;-69
2023/10/08 02:22:13;;;;;;;78.55;57.83;;;;;;;26.51;nan;98302.84;4852231;29;20578;-70
2023/10/08 02:24:42;;;;;;;82.15;59.45;;;;;;;26.57;nan;98307.84;4853962;29;20378;-69
2023/10/08 02:27:15;;;;;;;91.93;61.75;;;;;;;26.47;nan;98302.63;4853085;29;20061;-69
2023/10/08 02:29:44;;;;;;;87.90;60.60;;;;;;;26.61;nan;98308.03;4854275;29;20055;-70
2023/10/08 02:32:14;;;;;;;89.78;61.80;;;;;;;26.92;nan;98314.38;4852863;29;20060;-70
2023/10/08 02:34:43;;;;;;;86.43;62.10;;;;;;;26.96;nan;98311.84;4853451;29;20053;-69
2023/10/08 02:37:12;;;;;;;81.78;58.90;;;;;;;27.18;nan;98309.94;4852872;29;20057;-70
2023/10/08 02:39:42;;;;;;;73.63;54.72;;;;;;;27.35;nan;98316.63;4852173;29;20403;-69
2023/10/08 02:42:14;;;;;;;64.43;49.20;;;;;;;26.80;nan;98317.63;4852554;29;20489;-69
2023/10/08 02:44:43;;;;;;;62.08;50.08;;;;;;;26.88;nan;98318.03;4848492;29;20483;-70
2023/10/08 02:47:20;;;;;;;66.65;50.28;;;;;;;27.26;nan;98322.00;4851011;29;20106;-70
2023/10/08 02:49:51;;;;;;;60.03;47.78;;;;;;;27.35;nan;98314.69;4845935;29;20049;-69
2023/10/08 02:52:21;;;;;;;71.75;48.08;;;;;;;27.27;nan;98312.72;4843605;29;20057;-71
2023/10/08 02:54:53;;;;;;;61.90;44.03;;;;;;;27.46;nan;98320.66;4853504;29;20081;-69
2023/10/08 02:57:23;;;;;;;56.75;41.90;;;;;;;27.67;nan;98314.41;4868417;29;20133;-69
2023/10/08 02:59:54;;;;;;;57.55;43.72;;;;;;;27.45;nan;98324.50;4853659;29;20065;-68
2023/10/08 03:02:24;;;;;;;57.70;40.40;;;;;;;27.58;nan;98323.63;4849112;29;20053;-68
2023/10/08 03:04:55;;;;;;;55.00;41.53;;;;;;;27.62;nan;98327.34;4848241;29;20057;-68
2023/10/08 03:07:35;;;;;;;52.75;41.00;;;;;;;27.48;nan;98338.34;4852939;29;20129;-69
2023/10/08 03:10:17;;;;;;;61.38;41.47;;;;;;;27.72;nan;98327.06;4852217;29;20060;-68
2023/10/08 03:12:47;;;;;;;48.97;39.42;;;;;;;27.78;nan;98333.19;4853125;29;20057;-68
2023/10/08 03:15:28;;;;;;;57.72;41.42;;;;;;;27.87;nan;98334.03;4853076;29;20059;-68
2023/10/08 03:18:09;;;;;;;56.72;42.30;;;;;;;27.70;nan;98338.25;4852453;29;20145;-68
2023/10/08 03:23:22;;;;;;;49.58;39.13;;;;;;;28.11;nan;98348.06;4852211;29;20049;-68
2023/10/08 03:26:33;;;;;;;50.85;39.03;;;;;;;28.15;nan;98342.81;4845238;29;20420;-68
2023/10/08 03:28:57;;;;;;;42.70;34.95;;;;;;;28.17;nan;98349.53;4851478;29;20339;-68
2023/10/08 03:34:18;;;;;;;50.20;38.42;;;;;;;28.31;nan;98342.06;4833428;29;20137;-68
2023/10/08 03:36:50;;;;;;;56.95;38.63;;;;;;;28.22;nan;98352.13;4845221;29;20065;-68
2023/10/08 03:39:20;;;;;;;51.63;37.08;;;;;;;28.49;nan;98353.81;4852694;29;20148;-68
2023/10/08 03:42:05;;;;;;;50.38;35.75;;;;;;;28.49;nan;98354.59;4853074;29;20061;-68
2023/10/08 03:44:37;;;;;;;42.85;33.85;;;;;;;28.28;nan;98356.28;4852598;29;20050;-69
2023/10/08 03:47:10;;;;;;;47.97;33.45;;;;;;;28.42;nan;98367.06;4849868;29;20142;-69
2023/10/08 03:49:45;;;;;;;38.92;31.83;;;;;;;28.39;nan;98367.72;4853440;29;20166;-70
2023/10/08 03:52:15;;;;;;;40.95;31.92;;;;;;;28.50;nan;98364.38;4854783;29;20137;-70
2023/10/08 03:55:08;;;;;;;41.95;31.35;;;;;;;28.68;nan;98364.41;4853446;29;20073;-70
2023/10/08 03:57:43;;;;;;;46.30;31.27;;;;;;;29.00;nan;98362.06;4852867;29;20049;-69
2023/10/08 04:00:14;;;;;;;39.25;31.77;;;;;;;29.14;nan;98358.34;4852616;29;20063;-69
2023/10/08 04:03:00;;;;;;;42.78;29.23;;;;;;;29.12;nan;98355.16;4852976;29;20780;-70
2023/10/08 04:05:43;;;;;;;38.03;28.55;;;;;;;29.21;nan;98364.16;4852941;29;20053;-70
2023/10/08 04:08:42;;;;;;;38.13;27.88;;;;;;;29.30;nan;98359.47;4846818;29;20064;-69
2023/10/08 04:11:35;;;;;;;38.75;29.55;;;;;;;29.81;nan;98361.31;4852659;29;20053;-69
2023/10/08 04:14:02;;;;;;;41.47;28.55;;;;;;;30.28;nan;98349.22;4852463;29;20049;-69
2023/10/08 04:16:37;;;;;;;30.35;22.17;;;;;;;30.10;nan;98360.56;4852766;29;20382;-70
2023/10/08 04:19:07;;;;;;;26.30;21.70;;;;;;;30.52;nan;98356.84;4843092;29;20042;-69
2023/10/08 04:21:37;;;;;;;33.20;24.48;;;;;;;30.64;nan;98356.94;4849465;29;20060;-69
2023/10/08 04:24:08;;;;;;;41.33;24.60;;;;;;;30.78;nan;98362.13;4850536;29;20057;-69
2023/10/08 04:26:40;;;;;;;44.33;23.80;;;;;;;30.89;nan;98366.06;4853105;29;20643;-69
2023/10/08 04:29:16;;;;;;;30.60;22.38;;;;;;;30.90;nan;98367.66;4858357;29;20489;-69
2023/10/08 04:31:46;;;;;;;29.83;22.58;;;;;;;31.54;nan;98364.56;4858199;29;20060;-70
2023/10/08 04:34:16;;;;;;;29.95;21.80;;;;;;;31.87;nan;98367.28;4857889;29;20120;-69
2023/10/08 04:36:54;;;;;;;27.60;19.13;;;;;;;31.52;nan;98364.09;4857482;29;20140;-69
2023/10/08 04:39:46;;;;;;;30.25;18.38;;;;;;;31.88;nan;98366.94;4854081;29;20060;-69
2023/10/08 04:42:25;;;;;;;28.48;21.13;;;;;;;32.02;nan;98355.66;4858473;29;20145;-69
2023/10/08 04:44:55;;;;;;;27.88;19.45;;;;;;;32.56;nan;98361.72;4858332;29;20049;-69
2023/10/08 04:47:33;;;;;;;38.33;19.17;;;;;;;32.40;nan;98363.56;4856051;29;20057;-69
2023/10/08 04:50:05;;;;;;;24.25;17.67;;;;;;;32.95;nan;98366.47;4857965;29;20053;-69
2023/10/08 04:52:45;;;;;;;25.35;17.77;;;;;;;32.76;nan;98355.31;4861414;29;20049;-70
2023/10/08 04:55:20;;;;;;;29.10;17.85;;;;;;;32.62;nan;98360.38;4846800;29;20587;-69
2023/10/08 04:57:49;;;;;;;29.00;18.73;;;;;;;32.60;nan;98357.16;4850929;29;20057;-69
2023/10/08 05:00:40;;;;;;;26.38;18.38;;;;;;;33.10;nan;98359.47;4850504;29;21342;-69
2023/10/08 05:03:14;;;;;;;32.30;17.58;;;;;;;32.36;nan;98351.69;4849556;29;20083;-71
2023/10/08 05:08:57;;;;;;;26.52;17.98;;;;;;;32.81;nan;98346.84;4854012;29;20378;-68
2023/10/08 05:14:28;;;;;;;25.45;16.67;;;;;;;33.29;nan;98356.06;4846982;29;20056;-69
2023/10/08 05:17:11;;;;;;;25.27;16.20;;;;;;;32.56;nan;98350.75;4847592;29;20053;-69
2023/10/08 05:30:38;;;;;;;21.58;14.75;;;;;;;33.38;nan;98356.72;4850091;29;20056;-69
2023/10/08 05:38:37;;;;;;;27.77;14.15;;;;;;;33.71;nan;98350.97;4845253;29;20054;-69
2023/10/08 05:41:27;;;;;;;18.15;12.90;;;;;;;34.03;nan;98349.03;4845590;29;20053;-69
2023/10/08 05:44:14;;;;;;;24.23;14.20;;;;;;;33.47;nan;98345.59;4847800;29;20107;-69
2023/10/08 06:03:09;;;;;;;18.00;11.93;;;;;;;33.56;nan;98336.03;4843971;29;20064;-69
2023/10/08 06:05:27;;;;;;;20.70;12.63;;;;;;;33.84;nan;98338.75;4846464;29;20134;-69
2023/10/08 06:08:10;;;;;;;17.55;12.02;;;;;;;33.98;nan;98336.38;4846399;29;20049;-69
2023/10/08 06:13:16;;;;;;;20.85;11.05;;;;;;;33.99;nan;98323.44;4848588;29;20057;-69
2023/10/08 06:18:30;;;;;;;26.08;11.98;;;;;;;33.83;nan;98324.22;4846642;29;20050;-69
2023/10/08 06:21:08;;;;;;;21.45;12.55;;;;;;;34.08;nan;98321.28;4838162;29;20057;-69
2023/10/08 06:23:41;;;;;;;21.58;11.77;;;;;;;33.62;nan;98318.16;4844657;29;20141;-69
2023/10/08 06:28:44;;;;;;;28.25;13.05;;;;;;;34.26;nan;98311.50;4848990;29;20060;-68
2023/10/08 06:31:16;;;;;;;19.98;12.00;;;;;;;34.27;nan;98310.38;4836867;29;20066;-68
2023/10/08 06:33:46;;;;;;;16.98;11.60;;;;;;;34.32;nan;98312.03;4843296;29;20049;-67
2023/10/08 06:36:15;;;;;;;20.60;12.65;;;;;;;34.11;nan;98310.38;4847273;29;20107;-68
2023/10/08 06:38:49;;;;;;;15.38;11.55;;;;;;;34.20;nan;98312.97;4847314;29;20069;-67
2023/10/08 06:41:19;;;;;;;19.02;12.50;;;;;;;34.13;nan;98304.50;4847166;29;20057;-66
2023/10/08 06:44:02;;;;;;;21.00;13.02;;;;;;;33.68;nan;98302.25;4849624;29;20053;-67
2023/10/08 06:46:32;;;;;;;17.42;12.13;;;;;;;33.64;nan;98298.56;4843156;29;20046;-66
2023/10/08 06:49:11;;;;;;;18.88;12.35;;;;;;;33.22;nan;98290.81;4839445;29;20056;-65
2023/10/08 06:51:44;;;;;;;22.52;12.38;;;;;;;33.42;nan;98289.75;4841429;29;20049;-64
2023/10/08 06:54:17;;;;;;;21.50;12.77;;;;;;;33.50;nan;98292.72;4842525;29;20065;-65
2023/10/08 06:56:51;;;;;;;23.38;12.38;;;;;;;33.73;nan;98296.47;4840192;29;20318;-65
2023/10/08 06:59:25;;;;;;;17.08;12.18;;;;;;;33.61;nan;98291.81;4838098;29;20049;-64
2023/10/08 07:01:54;;;;;;;19.10;12.35;;;;;;;33.50;nan;98285.28;4839579;29;20049;-64
2023/10/08 07:04:24;;;;;;;18.25;12.27;;;;;;;33.48;nan;98286.75;4837922;29;20483;-65
2023/10/08 07:06:54;;;;;;;20.45;12.52;;;;;;;33.48;nan;98282.06;4844095;29;20084;-66
2023/10/08 07:09:29;;;;;;;25.85;12.68;;;;;;;33.33;nan;98277.34;4838135;29;20077;-65
2023/10/08 07:12:05;;;;;;;23.63;11.88;;;;;;;33.44;nan;98280.38;4836278;29;20060;-63
2023/10/08 07:14:35;;;;;;;21.45;12.43;;;;;;;33.31;nan;98276.91;4841771;29;20045;-67
2023/10/08 07:17:08;;;;;;;18.30;11.57;;;;;;;33.33;nan;98269.91;4841537;29;20454;-65
2023/10/08 07:19:37;;;;;;;19.67;10.60;;;;;;;33.20;nan;98267.59;4840422;29;20050;-66
2023/10/08 07:22:22;;;;;;;16.98;12.02;;;;;;;33.39;nan;98263.03;4839482;29;20168;-67
2023/10/08 07:24:52;;;;;;;22.58;10.82;;;;;;;33.64;nan;98265.59;4835979;29;20053;-66
2023/10/08 07:27:24;;;;;;;19.48;11.75;;;;;;;33.60;nan;98262.75;4838582;29;25856;-68
2023/10/08 07:29:55;;;;;;;21.53;12.40;;;;;;;33.42;nan;98265.06;4862877;29;20052;-66
2023/10/08 07:32:25;;;;;;;27.52;13.07;;;;;;;33.17;nan;98255.38;4843713;29;20055;-66
2023/10/08 07:34:57;;;;;;;21.45;11.25;;;;;;;33.33;nan;98253.44;4866681;29;20160;-66
2023/10/08 07:37:27;;;;;;;16.33;11.13;;;;;;;33.54;nan;98253.22;4854486;29;20077;-67
2023/10/08 07:39:58;;;;;;;18.58;10.25;;;;;;;33.49;nan;98253.47;4858019;29;20194;-66
2023/10/08 07:42:28;;;;;;;15.48;10.30;;;;;;;33.17;nan;98238.91;4849972;29;20382;-68
2023/10/08 07:44:57;;;;;;;21.67;11.63;;;;;;;33.29;nan;98241.56;4849922;29;20097;-65
2023/10/08 07:47:27;;;;;;;20.30;11.90;;;;;;;33.29;nan;98238.03;4858692;29;20038;-68
2023/10/08 07:49:58;;;;;;;25.15;12.88;;;;;;;33.35;nan;98236.63;4858889;29;20106;-66
2023/10/08 07:52:29;;;;;;;23.98;11.07;;;;;;;32.92;nan;98231.94;4845525;29;20103;-67
2023/10/08 07:54:58;;;;;;;18.65;11.32;;;;;;;32.85;nan;98235.25;4856986;29;20133;-65
2023/10/08 07:57:28;;;;;;;18.25;11.82;;;;;;;33.03;nan;98226.72;4844924;29;20363;-66
2023/10/08 08:00:18;;;;;;;21.58;11.55;;;;;;;33.03;nan;98230.25;4837942;29;20084;-65
2023/10/08 08:02:47;;;;;;;23.65;11.20;;;;;;;33.01;nan;98226.28;4845672;29;20491;-66
2023/10/08 08:05:17;;;;;;;24.00;12.05;;;;;;;32.98;nan;98223.06;4840870;29;20058;-67
2023/10/08 08:07:46;;;;;;;22.02;12.88;;;;;;;33.13;nan;98231.69;4842632;29;20057;-66
2023/10/08 08:10:18;;;;;;;21.70;12.15;;;;;;;33.23;nan;98223.78;4855248;29;20057;-67
2023/10/08 08:12:51;;;;;;;18.35;11.38;;;;;;;32.97;nan;98209.72;4850755;29;20053;-67
2023/10/08 08:15:20;;;;;;;;;;;;;;;32.98;nan;98208.56;4856014;29;20053;-67
2023/10/08 08:17:49;;;;;;;18.92;11.07;;;;;;;32.84;nan;98213.69;4849601;29;19939;-67
2023/10/08 08:20:19;;;;;;;16.48;11.13;;;;;;;32.88;nan;98211.84;4858736;29;20056;-66
2023/10/08 08:22:54;;;;;;;21.70;12.27;;;;;;;32.62;nan;98206.78;4849740;29;20064;-67
2023/10/08 08:25:33;;;;;;;21.95;11.98;;;;;;;32.72;nan;98208.22;4848829;29;20045;-65
2023/10/08 08:28:06;;;;;;;20.25;11.32;;;;;;;32.74;nan;98201.25;4842492;29;20049;-68
2023/10/08 08:30:36;;;;;;;27.02;12.15;;;;;;;32.85;nan;98196.03;4840769;29;20061;-67
2023/10/08 08:33:10;;;;;;;18.52;11.68;;;;;;;32.84;nan;98197.22;4835172;29;20060;-67
2023/10/08 08:35:40;;;;;;;16.98;11.45;;;;;;;32.86;nan;98190.22;4847036;29;20073;-67
2023/10/08 08:38:09;;;;;;;22.30;11.77;;;;;;;32.55;nan;98184.63;4837200;29;20054;-66
2023/10/08 08:40:39;;;;;;;18.38;11.60;;;;;;;32.66;nan;98191.25;4850958;29;20064;-67
2023/10/08 08:43:11;;;;;;;19.90;12.20;;;;;;;32.79;nan;98189.25;4842009;29;20136;-67
2023/10/08 08:45:41;;;;;;;17.70;11.93;;;;;;;32.87;nan;98185.53;4842431;29;20541;-66
2023/10/08 08:48:12;;;;;;;21.38;12.35;;;;;;;32.84;nan;98183.50;4842177;29;20141;-67
2023/10/08 08:50:42;;;;;;;25.25;12.10;;;;;;;32.73;nan;98188.69;4842672;29;20192;-67
2023/10/08 08:53:12;;;;;;;25.27;12.63;;;;;;;32.59;nan;98187.47;4850888;29;20145;-66
2023/10/08 08:55:43;;;;;;;16.15;11.85;;;;;;;32.62;nan;98187.59;4849423;29;20160;-66
2023/10/08 08:58:13;;;;;;;21.83;11.77;;;;;;;32.64;nan;98181.75;4844877;29;20073;-67
2023/10/08 09:00:47;;;;;;;20.35;11.95;;;;;;;32.72;nan;98178.06;4842015;29;20059;-66
2023/10/08 09:03:19;;;;;;;16.45;12.32;;;;;;;32.52;nan;98171.63;4839562;29;20046;-66
2023/10/08 09:05:50;;;;;;;20.33;11.32;;;;;;;32.71;nan;98169.03;4850562;29;20050;-67
2023/10/08 09:08:24;;;;;;;22.67;11.52;;;;;;;32.82;nan;98164.63;4839446;29;20714;-66
2023/10/08 09:11:00;;;;;;;20.13;12.23;;;;;;;32.69;nan;98157.63;4849061;29;20562;-66
2023/10/08 09:13:35;;;;;;;18.80;12.38;;;;;;;32.69;nan;98160.38;4846364;29;20733;-66
2023/10/08 09:16:08;;;;;;;21.75;11.55;;;;;;;32.79;nan;98157.13;4848022;29;20465;-66
2023/10/08 09:18:39;;;;;;;17.70;12.32;;;;;;;32.67;nan;98154.41;4848266;29;20057;-66
2023/10/08 09:21:15;;;;;;;20.40;12.02;;;;;;;32.82;nan;98150.13;4844184;29;20496;-66
2023/10/08 09:23:47;;;;;;;20.95;12.48;;;;;;;32.83;nan;98147.03;4846703;29;20068;-67
2023/10/08 09:26:19;;;;;;;17.67;12.20;;;;;;;32.83;nan;98152.53;4848012;29;20069;-66
2023/10/08 09:28:49;;;;;;;20.27;12.38;;;;;;;32.85;nan;98144.72;4841695;29;20054;-66
2023/10/08 09:31:23;;;;;;;19.73;12.75;;;;;;;32.80;nan;98142.22;4843615;29;20046;-67
2023/10/08 09:33:57;;;;;;;20.00;12.82;;;;;;;32.82;nan;98134.47;4843126;29;20075;-66
2023/10/08 09:36:33;;;;;;;22.00;11.93;;;;;;;32.75;nan;98139.75;4846284;29;20072;-67
2023/10/08 09:39:13;;;;;;;25.35;13.00;;;;;;;32.71;nan;98127.88;4840826;29;20050;-67
2023/10/08 09:41:47;;;;;;;22.35;12.05;;;;;;;32.63;nan;98131.59;4844052;29;20209;-65
2023/10/08 09:44:25;;;;;;;19.77;12.75;;;;;;;32.79;nan;98128.88;4846657;29;20060;-66
2023/10/08 09:46:58;;;;;;;26.70;12.73;;;;;;;32.69;nan;98123.91;4510255;29;9999712;-66
2023/10/08 09:49:38;;;;;;;16.50;12.32;;;;;;;32.54;nan;98125.44;4838513;29;20562;-67
2023/10/08 09:52:10;;;;;;;18.58;12.32;;;;;;;32.52;nan;98114.84;4843166;29;20509;-67
2023/10/08 09:55:03;;;;;;;24.30;13.70;;;;;;;32.51;nan;98113.22;4843252;29;20161;-67
2023/10/08 09:57:33;;;;;;;;;;;;;;;32.38;nan;98114.44;4841255;29;20767;-67
2023/10/08 10:00:06;;;;;;;16.25;12.23;;;;;;;32.38;nan;98105.41;4839787;29;20285;-67
2023/10/08 10:02:37;;;;;;;22.30;13.13;;;;;;;32.36;nan;98103.00;4844082;29;20057;-68
2023/10/08 10:05:20;;;;;;;24.20;12.98;;;;;;;32.35;nan;98090.44;4837897;29;20049;-66
2023/10/08 10:07:56;;;;;;;25.15;14.05;;;;;;;32.32;nan;98088.41;4843502;29;20095;-67
2023/10/08 10:10:31;;;;;;;23.45;13.45;;;;;;;32.38;nan;98095.25;4835850;29;20049;-66
2023/10/08 10:13:03;;;;;;;20.08;12.65;;;;;;;32.35;nan;98093.19;4841337;29;20192;-67
2023/10/08 10:15:34;;;;;;;18.20;13.50;;;;;;;32.38;nan;98091.72;4836370;29;20049;-68
2023/10/08 10:18:10;;;;;;;18.55;13.30;;;;;;;32.37;nan;98092.84;4842230;29;20087;-69
2023/10/08 10:20:45;;;;;;;18.23;13.85;;;;;;;32.39;nan;98087.81;4836439;29;20046;-67
2023/10/08 10:23:45;;;;;;;24.50;14.13;;;;;;;32.32;nan;98093.09;4841444;29;20398;-67
2023/10/08 10:26:30;;;;;;;19.05;13.63;;;;;;;32.30;nan;98087.97;4837949;29;20145;-68
2023/10/08 10:29:11;;;;;;;24.85;13.70;;;;;;;32.25;nan;98095.66;4836570;29;20057;-67
2023/10/08 10:31:56;;;;;;;28.33;14.52;;;;;;;32.20;nan;98088.47;4840326;29;20058;-69
2023/10/08 10:34:27;;;;;;;18.95;13.23;;;;;;;32.16;nan;98086.78;4843900;29;20145;-66
2023/10/08 10:37:08;;;;;;;22.45;14.10;;;;;;;32.14;nan;98086.31;4843075;29;20057;-69
2023/10/08 10:39:41;;;;;;;21.33;13.10;;;;;;;32.15;nan;98085.19;4837950;29;20065;-68
2023/10/08 10:42:23;;;;;;;24.40;13.05;;;;;;;32.15;nan;98094.19;4841617;29;20050;-68
2023/10/08 10:44:58;;;;;;;19.55;13.20;;;;;;;32.13;nan;98093.78;4840902;29;20082;-66
2023/10/08 10:47:27;;;;;;;22.63;13.93;;;;;;;32.08;nan;98094.78;4836094;29;20538;-67
2023/10/08 10:52:45;;;;;;;29.60;13.55;;;;;;;31.98;nan;98091.72;4841472;29;20057;-69
2023/10/08 10:58:03;;;;;;;21.52;13.63;;;;;;;31.89;nan;98097.34;4837387;29;20099;-68
2023/10/08 11:03:09;;;;;;;25.60;15.18;;;;;;;31.88;nan;98100.41;4845131;29;20057;-67
2023/10/08 11:05:47;;;;;;;25.95;14.57;;;;;;;31.82;nan;98097.13;4838937;29;20066;-68
2023/10/08 11:08:18;;;;;;;24.75;15.07;;;;;;;31.86;nan;98098.03;4846806;29;20580;-64
2023/10/08 11:10:51;;;;;;;20.52;13.68;;;;;;;31.75;nan;98091.44;4846452;29;20050;-64
2023/10/08 11:13:28;;;;;;;22.27;14.65;;;;;;;31.72;nan;98097.63;4839146;29;20127;-64
2023/10/08 11:15:59;;;;;;;21.58;14.38;;;;;;;31.63;nan;98113.38;4842731;29;20064;-68
2023/10/08 11:18:28;;;;;;;22.77;15.00;;;;;;;31.53;nan;98111.06;4849710;29;20063;-67
2023/10/08 11:21:15;;;;;;;30.25;15.57;;;;;;;31.44;nan;98107.66;4842798;29;20049;-67
2023/10/08 11:23:53;;;;;;;23.23;14.75;;;;;;;31.44;nan;98107.66;4842856;29;20149;-67
2023/10/08 11:26:35;;;;;;;21.83;14.60;;;;;;;31.38;nan;98109.03;4843845;29;20065;-67
2023/10/08 11:29:14;;;;;;;19.65;14.18;;;;;;;31.30;nan;98110.72;4854938;29;20056;-67
2023/10/08 11:31:44;;;;;;;19.60;14.68;;;;;;;31.20;nan;98109.25;4841003;29;20083;-66
2023/10/08 11:34:14;;;;;;;24.08;15.18;;;;;;;31.17;nan;98112.69;4853547;29;20081;-68
2023/10/08 11:36:49;;;;;;;20.50;15.10;;;;;;;31.09;nan;98110.84;4841285;29;20141;-67
2023/10/08 11:39:21;;;;;;;23.98;15.20;;;;;;;31.05;nan;98106.41;4842936;29;20057;-67
2023/10/08 11:42:06;;;;;;;25.30;15.95;;;;;;;31.03;nan;98101.25;4837900;29;20061;-67
2023/10/08 11:44:36;;;;;;;27.58;15.88;;;;;;;31.01;nan;98103.56;4850207;29;20045;-68
2023/10/08 11:47:21;;;;;;;22.40;15.48;;;;;;;30.97;nan;98110.00;4843891;29;20053;-68
2023/10/08 11:49:54;;;;;;;16.50;14.57;;;;;;;30.89;nan;98114.44;4835943;29;20079;-68
2023/10/08 11:52:23;;;;;;;29.95;16.13;;;;;;;30.85;nan;98113.50;4837092;29;20053;-66
2023/10/08 11:54:53;;;;;;;25.17;15.80;;;;;;;30.80;nan;98113.75;4842150;29;20081;-65
2023/10/08 11:57:22;;;;;;;27.17;15.73;;;;;;;30.78;nan;98118.75;4842923;29;20058;-67
2023/10/08 11:59:56;;;;;;;25.15;15.85;;;;;;;30.73;nan;98119.78;4836936;29;20154;-67
2023/10/08 12:02:30;;;;;;;22.48;15.98;;;;;;;30.62;nan;98115.09;4839960;29;20061;-66
2023/10/08 12:05:00;;;;;;;21.77;15.85;;;;;;;30.55;nan;98114.81;4842866;29;20130;-67
2023/10/08 12:07:29;;;;;;;22.45;16.10;;;;;;;30.54;nan;98121.41;4837419;29;20422;-69
2023/10/08 12:09:59;;;;;;;27.30;16.65;;;;;;;30.53;nan;98125.31;4844955;29;20057;-68
2023/10/08 12:12:30;;;;;;;24.73;16.27;;;;;;;30.46;nan;98114.91;4840033;29;20536;-67
2023/10/08 12:15:08;;;;;;;24.52;17.10;;;;;;;30.47;nan;98126.63;4845482;29;20169;-68
2023/10/08 12:17:39;;;;;;;30.92;16.58;;;;;;;30.43;nan;98117.47;4842976;29;20049;-69
2023/10/08 12:20:27;;;;;;;33.25;17.35;;;;;;;30.41;nan;98120.53;4851431;29;20064;-69
2023/10/08 12:22:59;;;;;;;26.05;16.83;;;;;;;30.39;nan;98128.28;4851640;29;20060;-68
2023/10/08 12:25:29;;;;;;;36.85;18.10;;;;;;;30.38;nan;98117.69;4851921;29;20056;-68
2023/10/08 12:28:03;;;;;;;29.80;17.80;;;;;;;30.33;nan;98124.97;4852657;29;20058;-68
2023/10/08 12:30:41;;;;;;;28.75;20.15;;;;;;;30.27;nan;98128.25;4852401;29;20053;-68
2023/10/08 12:33:12;;;;;;;32.97;20.60;;;;;;;30.19;nan;98126.38;4852409;29;20049;-68
2023/10/08 12:35:47;;;;;;;37.30;21.02;;;;;;;30.14;nan;98127.38;4852974;29;20322;-67
2023/10/08 12:38:20;;;;;;;38.97;21.20;;;;;;;30.10;nan;98136.56;4845269;29;20053;-68
2023/10/08 12:40:53;;;;;;;36.38;19.20;;;;;;;30.05;nan;98134.84;4833806;29;20110;-68
2023/10/08 12:43:27;;;;;;;29.63;21.00;;;;;;;30.00;nan;98137.78;4852030;29;20088;-68
2023/10/08 12:45:56;;;;;;;31.60;21.08;;;;;;;29.95;nan;98139.91;4842439;29;20106;-68
2023/10/08 12:48:27;;;;;;;27.85;20.45;;;;;;;29.89;nan;98142.03;4852857;29;20155;-68
2023/10/08 12:50:57;;;;;;;33.42;19.85;;;;;;;29.83;nan;98146.84;4855877;29;20061;-68
2023/10/08 12:53:37;;;;;;;33.85;21.20;;;;;;;29.79;nan;98143.19;4865244;29;20086;-68
2023/10/08 12:56:25;;;;;;;29.67;21.10;;;;;;;29.85;nan;98154.72;4855073;29;20049;-68
2023/10/08 12:58:54;;;;;;;37.88;22.35;;;;;;;29.82;nan;98144.47;4856212;29;20064;-68
2023/10/08 13:01:28;;;;;;;31.40;22.52;;;;;;;29.80;nan;98154.91;4855006;29;20784;-67
2023/10/08 13:04:00;;;;;;;35.63;23.40;;;;;;;29.73;nan;98155.47;4854884;29;20562;-68
2023/10/08 13:06:30;;;;;;;29.05;23.25;;;;;;;29.68;nan;98160.31;4848443;29;20465;-68